createdAt,value
2019-06-26T00:00:16.232Z,27.50
2019-06-26T00:05:20.460Z,27.45
2019-06-26T00:10:24.680Z,27.38
2019-06-26T00:15:28.910Z,27.36
2019-06-26T00:20:33.151Z,27.31
2019-06-26T00:25:37.394Z,27.23
2019-06-26T00:30:41.854Z,27.20
2019-06-26T00:35:46.103Z,27.19
2019-06-26T00:40:50.306Z,27.15
2019-06-26T00:45:54.527Z,27.12
2019-06-26T00:50:58.757Z,27.08
2019-06-26T00:56:03.007Z,26.98
2019-06-26T01:01:07.262Z,26.94
2019-06-26T01:06:30.524Z,26.88
2019-06-26T01:11:34.776Z,26.84
2019-06-26T01:16:39.006Z,26.78
2019-06-26T01:21:43.594Z,26.72
2019-06-26T01:26:47.806Z,26.67
2019-06-26T01:31:52.036Z,26.70
2019-06-26T01:36:56.262Z,26.67
2019-06-26T01:42:00.528Z,26.57
2019-06-26T01:47:04.758Z,26.57
2019-06-26T01:52:09.484Z,26.54
2019-06-26T01:57:13.703Z,26.50
2019-06-26T02:02:17.983Z,26.31
2019-06-26T02:07:22.198Z,26.22
2019-06-26T02:12:26.445Z,26.17
2019-06-26T02:17:30.667Z,26.13
2019-06-26T02:22:35.734Z,26.10
2019-06-26T02:27:40.041Z,26.04
2019-06-26T02:32:44.293Z,25.81
2019-06-26T02:37:48.536Z,25.89
2019-06-26T02:42:52.764Z,25.86
2019-06-26T02:47:56.993Z,25.85
2019-06-26T02:53:01.288Z,25.85
2019-06-26T02:58:05.529Z,25.86
2019-06-26T03:03:09.820Z,25.81
2019-06-26T03:08:14.063Z,25.78
2019-06-26T03:13:18.306Z,25.83
2019-06-26T03:18:22.562Z,25.70
2019-06-26T03:23:26.813Z,25.69
2019-06-26T03:28:31.025Z,25.82
2019-06-26T03:33:35.253Z,25.84
2019-06-26T03:38:39.495Z,25.77
2019-06-26T03:43:43.755Z,25.77
2019-06-26T03:48:47.974Z,25.73
2019-06-26T03:53:52.202Z,25.71
2019-06-26T03:58:56.423Z,25.72
2019-06-26T04:04:00.696Z,25.65
2019-06-26T04:09:05.991Z,25.48
2019-06-26T04:14:10.222Z,25.41
2019-06-26T04:19:14.449Z,25.46
2019-06-26T04:24:18.673Z,25.47
2019-06-26T04:29:23.233Z,25.43
2019-06-26T04:34:27.486Z,25.41
2019-06-26T04:39:31.721Z,25.32
2019-06-26T04:44:35.980Z,25.35
2019-06-26T04:49:40.269Z,25.48
2019-06-26T04:54:44.522Z,25.50
2019-06-26T04:59:48.770Z,25.59
2019-06-26T05:04:53.019Z,25.68
2019-06-26T05:09:57.258Z,25.84
2019-06-26T05:15:01.486Z,25.86
2019-06-26T05:20:06.898Z,26.02
2019-06-26T05:25:12.449Z,25.84
2019-06-26T05:30:17.188Z,26.08
2019-06-26T05:35:21.905Z,26.17
2019-06-26T05:40:26.262Z,26.33
2019-06-26T05:45:30.499Z,26.20
2019-06-26T05:50:34.733Z,26.65
2019-06-26T05:55:38.990Z,26.72
2019-06-26T06:00:43.258Z,26.75
2019-06-26T06:05:47.492Z,27.09
2019-06-26T06:10:51.742Z,27.19
2019-06-26T06:15:56.005Z,27.34
2019-06-26T06:21:00.229Z,27.62
2019-06-26T06:26:04.480Z,27.70
2019-06-26T06:31:08.802Z,27.88
2019-06-26T06:36:13.027Z,28.05
2019-06-26T06:41:17.285Z,28.37
2019-06-26T06:46:21.495Z,28.47
2019-06-26T06:51:25.722Z,28.66
2019-06-26T06:56:29.955Z,28.68
2019-06-26T07:01:34.239Z,28.78
2019-06-26T07:06:38.561Z,28.99
2019-06-26T07:11:42.794Z,29.39
2019-06-26T07:16:47.034Z,29.30
2019-06-26T07:21:51.279Z,29.55
2019-06-26T07:26:55.527Z,29.83
2019-06-26T07:31:59.742Z,29.91
2019-06-26T07:37:03.986Z,30.01
2019-06-26T07:42:08.313Z,30.33
2019-06-26T07:47:22.431Z,30.52
2019-06-26T07:52:18.502Z,30.76
2019-06-26T07:57:22.950Z,30.94
2019-06-26T08:02:27.215Z,31.09
2019-06-26T08:07:31.477Z,31.51
2019-06-26T08:12:35.739Z,31.76
2019-06-26T08:17:39.965Z,31.98
2019-06-26T08:22:44.258Z,31.91
2019-06-26T08:27:48.502Z,31.92
2019-06-26T08:32:52.747Z,31.92
2019-06-26T08:38:09.407Z,32.27
2019-06-26T08:43:03.013Z,32.51
2019-06-26T08:48:18.825Z,32.58
2019-06-26T08:53:13.263Z,32.69
2019-06-26T08:58:17.588Z,32.86
2019-06-26T09:03:21.795Z,32.79
2019-06-26T09:08:26.228Z,32.96
2019-06-26T09:13:30.649Z,32.89
2019-06-26T09:18:36.277Z,32.92
2019-06-26T09:23:40.697Z,33.21
2019-06-26T09:28:44.918Z,33.34
2019-06-26T09:33:49.147Z,33.57
2019-06-26T09:38:53.357Z,33.69
2019-06-26T09:43:57.586Z,33.82
2019-06-26T09:49:01.857Z,33.83
2019-06-26T09:54:06.159Z,33.61
2019-06-26T09:59:10.388Z,33.64
2019-06-26T10:04:14.624Z,33.90
2019-06-26T10:09:18.859Z,34.21
2019-06-26T10:14:23.179Z,34.60
2019-06-26T10:19:27.660Z,34.56
2019-06-26T10:24:31.968Z,34.64
2019-06-26T10:29:36.214Z,34.54
2019-06-26T10:34:40.459Z,34.91
2019-06-26T10:39:44.686Z,35.05
2019-06-26T10:44:48.936Z,35.15
2019-06-26T10:49:53.171Z,35.38
2019-06-26T10:54:57.414Z,35.69
2019-06-26T11:00:01.742Z,35.77
2019-06-26T11:05:07.382Z,36.17
2019-06-26T11:10:12.021Z,36.39
2019-06-26T11:15:16.617Z,36.31
2019-06-26T11:20:20.957Z,36.19
2019-06-26T11:25:25.181Z,36.14
2019-06-26T11:30:30.749Z,37.18
2019-06-26T11:35:34.976Z,37.17
2019-06-26T11:40:39.201Z,37.08
2019-06-26T11:45:43.580Z,36.96
2019-06-26T11:50:47.883Z,37.70
2019-06-26T11:55:52.161Z,37.47
2019-06-26T12:00:56.346Z,37.46
2019-06-26T12:06:15.512Z,36.66
2019-06-26T12:11:06.563Z,36.43
2019-06-26T12:16:11.605Z,36.85
2019-06-26T12:21:15.895Z,36.85
2019-06-26T12:26:20.134Z,37.52
2019-06-26T12:31:24.413Z,38.02
2019-06-26T12:36:29.073Z,38.30
2019-06-26T12:41:33.343Z,38.57
2019-06-26T12:46:37.684Z,36.94
2019-06-26T12:51:41.980Z,36.56
2019-06-26T12:56:46.313Z,37.71
2019-06-26T13:01:50.618Z,39.28
2019-06-26T13:06:54.845Z,38.50
2019-06-26T13:11:59.072Z,39.45
2019-06-26T13:17:03.313Z,39.52
2019-06-26T13:22:07.546Z,39.59
2019-06-26T13:27:11.772Z,39.91
2019-06-26T13:32:16.848Z,39.64
2019-06-26T13:37:21.315Z,39.23
2019-06-26T13:42:25.547Z,38.90
2019-06-26T13:47:29.776Z,40.10
2019-06-26T13:52:34.042Z,40.15
2019-06-26T13:57:38.257Z,39.40
2019-06-26T14:02:42.492Z,38.98
2019-06-26T14:07:46.727Z,39.26
2019-06-26T14:12:50.952Z,39.47
2019-06-26T14:17:55.694Z,39.60
2019-06-26T14:22:59.912Z,39.56
2019-06-26T14:28:04.165Z,38.97
2019-06-26T14:33:08.392Z,37.42
2019-06-26T14:38:12.631Z,37.49
2019-06-26T14:43:16.849Z,39.81
2019-06-26T14:48:21.210Z,39.69
2019-06-26T14:53:25.499Z,39.76
2019-06-26T14:58:29.724Z,38.40
2019-06-26T15:03:33.949Z,39.65
2019-06-26T15:08:38.189Z,38.03
2019-06-26T15:13:42.427Z,39.98
2019-06-26T15:18:46.685Z,39.47
2019-06-26T15:23:50.938Z,38.39
2019-06-26T15:28:55.294Z,39.06
2019-06-26T15:33:59.533Z,40.25
2019-06-26T15:39:06.355Z,39.74
2019-06-26T15:44:10.576Z,39.66
2019-06-26T15:49:14.807Z,39.92
2019-06-26T15:54:19.123Z,38.92
2019-06-26T15:59:23.373Z,39.48
2019-06-26T16:04:27.644Z,38.22
2019-06-26T16:09:31.918Z,38.01
2019-06-26T16:14:36.172Z,38.73
2019-06-26T16:19:40.405Z,38.32
2019-06-26T16:24:44.713Z,37.94
2019-06-26T16:29:48.948Z,38.17
2019-06-26T16:34:53.176Z,38.86
2019-06-26T16:39:57.759Z,38.16
2019-06-26T16:45:01.996Z,38.12
2019-06-26T16:50:07.610Z,37.68
2019-06-26T16:55:11.867Z,37.96
2019-06-26T17:00:16.331Z,37.70
2019-06-26T17:05:20.757Z,36.46
2019-06-26T17:10:24.974Z,35.73
2019-06-26T17:15:29.262Z,35.11
2019-06-26T17:20:33.508Z,34.77
2019-06-26T17:25:37.739Z,34.26
2019-06-26T17:30:41.973Z,34.19
2019-06-26T17:35:46.249Z,33.73
2019-06-26T17:40:50.527Z,33.69
2019-06-26T17:45:55.418Z,33.53
2019-06-26T17:50:59.688Z,33.61
2019-06-26T17:56:03.938Z,33.37
2019-06-26T18:01:08.164Z,33.40
2019-06-26T18:06:12.402Z,32.92
2019-06-26T18:11:16.644Z,32.85
2019-06-26T18:16:20.879Z,32.63
2019-06-26T18:21:25.108Z,32.58
2019-06-26T18:26:29.349Z,32.42
2019-06-26T18:31:34.796Z,32.19
2019-06-26T18:36:39.031Z,32.03
2019-06-26T18:41:43.268Z,31.70
2019-06-26T18:46:47.535Z,31.33
2019-06-26T18:51:51.793Z,31.32
2019-06-26T18:56:56.023Z,31.19
2019-06-26T19:02:00.252Z,31.00
2019-06-26T19:07:04.487Z,30.99
2019-06-26T19:12:08.735Z,30.62
2019-06-26T19:17:12.972Z,30.56
2019-06-26T19:22:17.213Z,30.48
2019-06-26T19:27:21.441Z,30.38
2019-06-26T19:32:25.673Z,30.23
2019-06-26T19:37:29.923Z,29.92
2019-06-26T19:42:34.159Z,29.54
2019-06-26T19:47:38.404Z,29.36
2019-06-26T19:52:42.683Z,29.25
2019-06-26T19:57:46.946Z,28.95
2019-06-26T20:02:52.285Z,28.93
2019-06-26T20:07:57.213Z,29.08
2019-06-26T20:13:01.499Z,28.77
2019-06-26T20:18:06.502Z,28.72
2019-06-26T20:23:10.717Z,28.35
2019-06-26T20:28:14.959Z,28.17
2019-06-26T20:33:19.205Z,28.20
2019-06-26T20:38:23.434Z,28.14
2019-06-26T20:43:27.670Z,28.04
2019-06-26T20:48:31.960Z,27.84
2019-06-26T20:53:36.204Z,27.80
2019-06-26T20:58:40.448Z,27.50
2019-06-26T21:03:44.685Z,27.51
2019-06-26T21:08:48.932Z,27.51
2019-06-26T21:13:53.143Z,27.53
2019-06-26T21:18:57.371Z,27.33
2019-06-26T21:24:01.613Z,27.12
2019-06-26T21:29:05.881Z,26.94
2019-06-26T21:34:10.101Z,26.90
2019-06-26T21:39:14.333Z,26.71
2019-06-26T21:44:18.555Z,26.51
2019-06-26T21:49:22.793Z,26.35
2019-06-26T21:54:27.056Z,26.23
2019-06-26T21:59:31.402Z,26.02
2019-06-26T22:04:35.654Z,26.04
2019-06-26T22:09:39.889Z,25.73
2019-06-26T22:14:44.129Z,25.38
2019-06-26T22:19:48.636Z,25.34
2019-06-26T22:24:52.856Z,25.42
2019-06-26T22:29:57.104Z,25.36
2019-06-26T22:35:01.386Z,25.08
2019-06-26T22:40:06.152Z,24.91
2019-06-26T22:45:10.772Z,24.68
2019-06-26T22:50:15.209Z,24.73
2019-06-26T22:55:19.472Z,24.56
2019-06-26T23:00:23.712Z,24.41
2019-06-26T23:05:27.991Z,24.29
2019-06-26T23:10:32.221Z,24.01
2019-06-26T23:15:36.448Z,23.72
2019-06-26T23:20:41.309Z,23.65
2019-06-26T23:25:45.543Z,23.60
2019-06-26T23:30:49.781Z,23.25
2019-06-26T23:35:54.062Z,23.29
2019-06-26T23:40:58.344Z,23.11
2019-06-26T23:46:02.543Z,22.87
2019-06-26T23:51:06.779Z,22.73
2019-06-26T23:56:11.048Z,22.68
